sensor_id;sensor_type;location;lat;lon;timestamp;P1;durP1;ratioP1;P2;durP2;ratioP2
49153;SDS011;49455;52.252;9.124;2024-01-25T10:59:10;33.58;;;6.65;;
49153;SDS011;49455;52.252;9.124;2024-01-25T11:04:12;34.42;;;6.60;;
49153;SDS011;49455;52.252;9.124;2024-01-25T11:09:17;28.60;;;6.68;;
49153;SDS011;49455;52.252;9.124;2024-01-25T11:14:19;33.90;;;6.97;;
49153;SDS011;49455;52.252;9.124;2024-01-25T11:19:20;33.28;;;6.68;;
49153;SDS011;49455;52.252;9.124;2024-01-25T11:24:25;28.75;;;6.40;;
49153;SDS011;49455;52.252;9.124;2024-01-25T11:29:25;25.00;;;5.25;;
49153;SDS011;49455;52.252;9.124;2024-01-25T11:34:26;27.52;;;5.68;;
49153;SDS011;49455;52.252;9.124;2024-01-25T11:39:26;24.55;;;5.80;;
49153;SDS011;49455;52.252;9.124;2024-01-25T11:44:27;25.92;;;6.05;;
49153;SDS011;49455;52.252;9.124;2024-01-25T11:49:27;26.58;;;5.53;;
49153;SDS011;49455;52.252;9.124;2024-01-25T11:54:28;26.88;;;6.95;;
49153;SDS011;49455;52.252;9.124;2024-01-25T11:59:28;27.58;;;6.35;;
49153;SDS011;49455;52.252;9.124;2024-01-25T12:04:29;25.23;;;6.20;;
49153;SDS011;49455;52.252;9.124;2024-01-25T12:09:29;29.92;;;6.90;;
49153;SDS011;49455;52.252;9.124;2024-01-25T12:14:30;27.55;;;6.97;;
49153;SDS011;49455;52.252;9.124;2024-01-25T12:19:30;22.83;;;5.90;;
49153;SDS011;49455;52.252;9.124;2024-01-25T12:24:31;29.02;;;6.68;;
49153;SDS011;49455;52.252;9.124;2024-01-25T12:29:31;31.38;;;7.22;;
49153;SDS011;49455;52.252;9.124;2024-01-25T12:34:32;31.58;;;6.60;;
49153;SDS011;49455;52.252;9.124;2024-01-25T12:39:32;26.95;;;6.97;;
49153;SDS011;49455;52.252;9.124;2024-01-25T12:44:33;25.10;;;7.13;;
49153;SDS011;49455;52.252;9.124;2024-01-25T12:49:33;34.63;;;7.30;;
49153;SDS011;49455;52.252;9.124;2024-01-25T12:54:34;24.38;;;6.80;;
49153;SDS011;49455;52.252;9.124;2024-01-25T12:59:35;27.30;;;6.90;;
49153;SDS011;49455;52.252;9.124;2024-01-25T13:04:36;32.13;;;6.97;;
49153;SDS011;49455;52.252;9.124;2024-01-25T13:09:36;27.77;;;7.20;;
49153;SDS011;49455;52.252;9.124;2024-01-25T13:14:37;26.02;;;6.60;;
49153;SDS011;49455;52.252;9.124;2024-01-25T13:19:37;27.70;;;6.03;;
49153;SDS011;49455;52.252;9.124;2024-01-25T13:24:38;26.05;;;5.75;;
49153;SDS011;49455;52.252;9.124;2024-01-25T13:29:39;27.67;;;6.15;;
49153;SDS011;49455;52.252;9.124;2024-01-25T13:34:39;21.40;;;5.80;;
49153;SDS011;49455;52.252;9.124;2024-01-25T13:39:40;23.75;;;5.53;;
49153;SDS011;49455;52.252;9.124;2024-01-25T13:44:40;24.20;;;5.35;;
49153;SDS011;49455;52.252;9.124;2024-01-25T13:49:41;24.85;;;6.55;;
49153;SDS011;49455;52.252;9.124;2024-01-25T13:54:41;36.28;;;10.90;;
49153;SDS011;49455;52.252;9.124;2024-01-25T13:59:42;25.92;;;7.25;;
49153;SDS011;49455;52.252;9.124;2024-01-25T14:04:42;25.48;;;5.90;;
49153;SDS011;49455;52.252;9.124;2024-01-25T14:09:42;25.58;;;5.65;;
49153;SDS011;49455;52.252;9.124;2024-01-25T14:14:43;27.08;;;5.68;;
49153;SDS011;49455;52.252;9.124;2024-01-25T14:19:43;22.58;;;4.82;;
49153;SDS011;49455;52.252;9.124;2024-01-25T14:24:44;25.55;;;5.35;;
49153;SDS011;49455;52.252;9.124;2024-01-25T14:29:44;25.30;;;6.50;;
49153;SDS011;49455;52.252;9.124;2024-01-25T14:34:45;22.65;;;5.20;;
49153;SDS011;49455;52.252;9.124;2024-01-25T14:39:45;26.75;;;4.97;;
49153;SDS011;49455;52.252;9.124;2024-01-25T14:44:46;23.10;;;5.50;;
49153;SDS011;49455;52.252;9.124;2024-01-25T14:49:46;29.40;;;5.47;;
49153;SDS011;49455;52.252;9.124;2024-01-25T14:54:47;25.70;;;5.53;;
49153;SDS011;49455;52.252;9.124;2024-01-25T14:59:47;27.48;;;6.90;;
49153;SDS011;49455;52.252;9.124;2024-01-25T15:04:48;26.35;;;5.88;;
49153;SDS011;49455;52.252;9.124;2024-01-25T15:09:48;23.27;;;5.82;;
49153;SDS011;49455;52.252;9.124;2024-01-25T15:14:49;25.88;;;6.30;;
49153;SDS011;49455;52.252;9.124;2024-01-25T15:19:49;31.60;;;6.28;;
49153;SDS011;49455;52.252;9.124;2024-01-25T15:24:50;27.20;;;6.13;;
49153;SDS011;49455;52.252;9.124;2024-01-25T15:29:50;28.48;;;6.88;;
49153;SDS011;49455;52.252;9.124;2024-01-25T15:34:51;32.78;;;7.57;;
49153;SDS011;49455;52.252;9.124;2024-01-25T15:39:51;29.77;;;7.28;;
49153;SDS011;49455;52.252;9.124;2024-01-25T15:44:52;33.20;;;7.28;;
49153;SDS011;49455;52.252;9.124;2024-01-25T15:49:52;29.83;;;7.53;;
49153;SDS011;49455;52.252;9.124;2024-01-25T15:54:53;35.05;;;8.48;;
49153;SDS011;49455;52.252;9.124;2024-01-25T15:59:53;32.95;;;9.60;;
49153;SDS011;49455;52.252;9.124;2024-01-25T16:04:54;39.42;;;13.10;;
49153;SDS011;49455;52.252;9.124;2024-01-25T16:09:54;38.15;;;11.73;;
49153;SDS011;49455;52.252;9.124;2024-01-25T16:14:55;38.25;;;13.70;;
49153;SDS011;49455;52.252;9.124;2024-01-25T16:19:55;41.28;;;14.52;;
49153;SDS011;49455;52.252;9.124;2024-01-25T16:24:56;46.67;;;14.95;;
49153;SDS011;49455;52.252;9.124;2024-01-25T16:29:56;39.95;;;14.02;;
49153;SDS011;49455;52.252;9.124;2024-01-25T16:34:57;43.20;;;14.25;;
49153;SDS011;49455;52.252;9.124;2024-01-25T16:39:57;49.83;;;16.13;;
49153;SDS011;49455;52.252;9.124;2024-01-25T16:44:58;42.40;;;15.23;;
49153;SDS011;49455;52.252;9.124;2024-01-25T16:49:58;43.00;;;15.88;;
49153;SDS011;49455;52.252;9.124;2024-01-25T16:54:59;43.28;;;15.35;;
49153;SDS011;49455;52.252;9.124;2024-01-25T17:00:00;47.05;;;15.50;;
49153;SDS011;49455;52.252;9.124;2024-01-25T17:05:00;46.42;;;15.23;;
49153;SDS011;49455;52.252;9.124;2024-01-25T17:10:01;46.70;;;15.55;;
49153;SDS011;49455;52.252;9.124;2024-01-25T17:15:01;47.08;;;14.70;;
49153;SDS011;49455;52.252;9.124;2024-01-25T17:20:02;48.13;;;14.27;;
49153;SDS011;49455;52.252;9.124;2024-01-25T17:25:03;42.30;;;14.13;;
49153;SDS011;49455;52.252;9.124;2024-01-25T17:30:04;48.63;;;14.25;;
49153;SDS011;49455;52.252;9.124;2024-01-25T17:35:05;43.50;;;13.10;;
49153;SDS011;49455;52.252;9.124;2024-01-25T17:40:06;45.00;;;11.98;;
49153;SDS011;49455;52.252;9.124;2024-01-25T17:45:07;48.47;;;14.68;;
49153;SDS011;49455;52.252;9.124;2024-01-25T17:50:08;46.60;;;12.85;;
49153;SDS011;49455;52.252;9.124;2024-01-25T17:55:08;39.53;;;10.48;;
49153;SDS011;49455;52.252;9.124;2024-01-25T18:00:09;40.35;;;10.98;;
49153;SDS011;49455;52.252;9.124;2024-01-25T18:05:10;33.15;;;10.23;;
49153;SDS011;49455;52.252;9.124;2024-01-25T18:10:10;38.63;;;9.82;;
49153;SDS011;49455;52.252;9.124;2024-01-25T18:15:11;40.63;;;9.98;;
49153;SDS011;49455;52.252;9.124;2024-01-25T18:20:11;35.15;;;8.55;;
49153;SDS011;49455;52.252;9.124;2024-01-25T18:25:12;34.38;;;9.05;;
49153;SDS011;49455;52.252;9.124;2024-01-25T18:30:13;33.88;;;8.88;;
49153;SDS011;49455;52.252;9.124;2024-01-25T18:35:13;32.53;;;7.78;;
49153;SDS011;49455;52.252;9.124;2024-01-25T18:40:14;29.73;;;8.32;;
49153;SDS011;49455;52.252;9.124;2024-01-25T18:45:14;29.00;;;8.07;;
49153;SDS011;49455;52.252;9.124;2024-01-25T18:50:15;32.00;;;8.45;;
49153;SDS011;49455;52.252;9.124;2024-01-25T18:55:16;31.13;;;7.53;;
49153;SDS011;49455;52.252;9.124;2024-01-25T19:00:17;32.90;;;8.15;;
49153;SDS011;49455;52.252;9.124;2024-01-25T19:05:18;33.22;;;7.75;;
49153;SDS011;49455;52.252;9.124;2024-01-25T19:10:18;29.80;;;8.10;;
49153;SDS011;49455;52.252;9.124;2024-01-25T19:15:19;27.98;;;7.50;;
49153;SDS011;49455;52.252;9.124;2024-01-25T19:20:19;29.35;;;7.38;;
49153;SDS011;49455;52.252;9.124;2024-01-25T19:25:20;33.45;;;8.07;;
49153;SDS011;49455;52.252;9.124;2024-01-25T19:30:20;32.85;;;8.65;;
49153;SDS011;49455;52.252;9.124;2024-01-25T19:35:21;28.45;;;7.80;;
49153;SDS011;49455;52.252;9.124;2024-01-25T19:40:21;31.48;;;8.07;;
49153;SDS011;49455;52.252;9.124;2024-01-25T19:45:22;37.58;;;12.13;;
49153;SDS011;49455;52.252;9.124;2024-01-25T19:50:22;33.90;;;8.63;;
49153;SDS011;49455;52.252;9.124;2024-01-25T19:55:23;27.83;;;8.85;;
49153;SDS011;49455;52.252;9.124;2024-01-25T20:00:23;28.33;;;8.20;;
49153;SDS011;49455;52.252;9.124;2024-01-25T20:05:24;28.85;;;6.75;;
49153;SDS011;49455;52.252;9.124;2024-01-25T20:10:26;33.58;;;7.30;;
49153;SDS011;49455;52.252;9.124;2024-01-25T20:15:26;26.40;;;7.75;;
49153;SDS011;49455;52.252;9.124;2024-01-25T20:20:27;27.95;;;7.82;;
49153;SDS011;49455;52.252;9.124;2024-01-25T20:25:27;58.55;;;16.88;;
49153;SDS011;49455;52.252;9.124;2024-01-25T20:30:28;38.97;;;10.23;;
49153;SDS011;49455;52.252;9.124;2024-01-25T20:35:28;28.63;;;9.38;;
49153;SDS011;49455;52.252;9.124;2024-01-25T20:40:29;30.58;;;9.20;;
49153;SDS011;49455;52.252;9.124;2024-01-25T20:45:29;35.00;;;9.23;;
49153;SDS011;49455;52.252;9.124;2024-01-25T20:50:31;24.70;;;7.47;;
49153;SDS011;49455;52.252;9.124;2024-01-25T20:55:32;28.90;;;7.95;;
49153;SDS011;49455;52.252;9.124;2024-01-25T21:00:32;33.78;;;7.35;;
49153;SDS011;49455;52.252;9.124;2024-01-25T21:05:33;26.73;;;7.53;;
49153;SDS011;49455;52.252;9.124;2024-01-25T21:10:34;26.40;;;7.25;;
49153;SDS011;49455;52.252;9.124;2024-01-25T21:15:34;27.58;;;7.70;;
49153;SDS011;49455;52.252;9.124;2024-01-25T21:20:35;26.50;;;6.85;;
49153;SDS011;49455;52.252;9.124;2024-01-25T21:25:35;33.25;;;7.45;;
49153;SDS011;49455;52.252;9.124;2024-01-25T21:30:36;27.15;;;7.10;;
49153;SDS011;49455;52.252;9.124;2024-01-25T21:35:36;29.77;;;7.93;;
49153;SDS011;49455;52.252;9.124;2024-01-25T21:40:37;27.90;;;6.63;;
49153;SDS011;49455;52.252;9.124;2024-01-25T21:45:37;33.72;;;6.95;;
49153;SDS011;49455;52.252;9.124;2024-01-25T21:50:38;26.35;;;6.50;;
49153;SDS011;49455;52.252;9.124;2024-01-25T21:55:38;23.73;;;6.95;;
49153;SDS011;49455;52.252;9.124;2024-01-25T22:00:39;21.70;;;6.22;;
49153;SDS011;49455;52.252;9.124;2024-01-25T22:05:39;26.40;;;6.45;;
49153;SDS011;49455;52.252;9.124;2024-01-25T22:10:40;27.67;;;6.97;;
49153;SDS011;49455;52.252;9.124;2024-01-25T22:15:40;23.02;;;6.10;;
49153;SDS011;49455;52.252;9.124;2024-01-25T22:20:41;27.02;;;6.45;;
49153;SDS011;49455;52.252;9.124;2024-01-25T22:25:41;28.17;;;7.07;;
49153;SDS011;49455;52.252;9.124;2024-01-25T22:30:42;24.08;;;6.15;;
49153;SDS011;49455;52.252;9.124;2024-01-25T22:35:43;26.70;;;6.55;;
49153;SDS011;49455;52.252;9.124;2024-01-25T22:40:43;24.23;;;6.43;;
49153;SDS011;49455;52.252;9.124;2024-01-25T22:45:44;26.85;;;6.60;;
49153;SDS011;49455;52.252;9.124;2024-01-25T22:50:44;26.27;;;6.63;;
49153;SDS011;49455;52.252;9.124;2024-01-25T22:55:44;29.10;;;6.65;;
49153;SDS011;49455;52.252;9.124;2024-01-25T23:00:45;24.83;;;6.10;;
49153;SDS011;49455;52.252;9.124;2024-01-25T23:05:45;21.10;;;6.10;;
49153;SDS011;49455;52.252;9.124;2024-01-25T23:10:46;25.33;;;6.25;;
49153;SDS011;49455;52.252;9.124;2024-01-25T23:15:46;28.20;;;6.40;;
49153;SDS011;49455;52.252;9.124;2024-01-25T23:20:47;25.88;;;6.65;;
49153;SDS011;49455;52.252;9.124;2024-01-25T23:25:47;26.73;;;6.97;;
49153;SDS011;49455;52.252;9.124;2024-01-25T23:30:48;25.08;;;6.85;;
49153;SDS011;49455;52.252;9.124;2024-01-25T23:35:48;29.33;;;7.70;;
49153;SDS011;49455;52.252;9.124;2024-01-25T23:40:49;23.50;;;7.15;;
49153;SDS011;49455;52.252;9.124;2024-01-25T23:45:49;23.23;;;7.03;;
49153;SDS011;49455;52.252;9.124;2024-01-25T23:50:50;20.58;;;7.45;;
49153;SDS011;49455;52.252;9.124;2024-01-25T23:55:50;27.25;;;8.75;;
